Time;durP1;ratioP1;P1;durP2;ratioP2;P2;SDS_P1;SDS_P2;PMS_P1;PMS_P2;Temp;Humidity;BMP_temperature;BMP_pressure;BME280_temperature;BME280_humidity;BME280_pressure;Samples;Min_cycle;Max_cycle;Signal;HPM_P1;HPM_P2
2023/01/20 00:01:58;;;;;;;13.77;11.20;;;-0.60;99.90;;;;;;6273595;28;20045;-79
2023/01/20 00:04:59;;;;;;;24.63;12.37;;;-0.60;99.90;;;;;;6273183;28;20144;-78
2023/01/20 00:08:02;;;;;;;18.43;12.97;;;-0.70;99.90;;;;;;6270872;28;20056;-77
2023/01/20 00:11:05;;;;;;;17.67;11.83;;;-0.70;99.90;;;;;;6270916;28;20041;-78
2023/01/20 00:14:09;;;;;;;16.63;11.17;;;-0.70;99.90;;;;;;6272927;28;20049;-78
2023/01/20 00:17:10;;;;;;;19.10;11.67;;;-0.80;99.90;;;;;;6270468;28;20045;-78
2023/01/20 00:20:12;;;;;;;19.43;12.27;;;-0.90;99.90;;;;;;6271986;28;20739;-78
2023/01/20 00:23:15;;;;;;;17.30;12.50;;;-1.00;99.90;;;;;;6273419;28;20037;-77
2023/01/20 00:26:18;;;;;;;16.13;13.30;;;-1.00;99.90;;;;;;6273166;28;20060;-78
2023/01/20 00:29:20;;;;;;;16.37;11.57;;;-1.00;99.90;;;;;;6273712;28;20056;-78
2023/01/20 00:32:22;;;;;;;15.67;12.10;;;-1.00;99.90;;;;;;6267537;28;20567;-78
2023/01/20 00:35:23;;;;;;;19.40;11.10;;;-1.00;99.90;;;;;;6273039;28;20057;-78
2023/01/20 00:38:26;;;;;;;21.03;12.93;;;-1.00;99.90;;;;;;6271937;28;20060;-78
2023/01/20 00:41:28;;;;;;;18.47;11.97;;;-1.00;99.90;;;;;;6251389;28;20037;-78
2023/01/20 00:44:30;;;;;;;17.03;11.83;;;-1.10;99.90;;;;;;6271746;28;20051;-78
2023/01/20 00:47:32;;;;;;;18.53;11.40;;;-1.10;99.90;;;;;;6277625;28;20059;-78
2023/01/20 00:50:33;;;;;;;20.73;11.63;;;-1.20;99.90;;;;;;6277294;28;20049;-78
2023/01/20 00:53:37;;;;;;;16.43;12.00;;;-1.20;99.90;;;;;;6277241;28;20057;-78
2023/01/20 00:56:38;;;;;;;18.80;13.67;;;-1.30;99.90;;;;;;6278111;28;20051;-79
2023/01/20 00:59:40;;;;;;;19.53;13.43;;;-1.30;99.90;;;;;;6276456;28;20060;-78
2023/01/20 01:02:41;;;;;;;26.00;13.93;;;-1.30;99.90;;;;;;6276910;28;20048;-78
2023/01/20 01:05:44;;;;;;;17.60;11.73;;;-1.30;99.90;;;;;;6278220;28;20052;-78
2023/01/20 01:08:47;;;;;;;18.67;12.30;;;-1.40;99.90;;;;;;6276381;28;20052;-78
2023/01/20 01:11:49;;;;;;;21.00;13.33;;;-1.40;99.90;;;;;;6277633;28;20045;-78
2023/01/20 01:14:51;;;;;;;19.17;11.87;;;-1.50;99.90;;;;;;6277866;28;20052;-78
2023/01/20 01:17:52;;;;;;;15.70;11.90;;;-1.50;99.90;;;;;;6278426;28;20045;-78
2023/01/20 01:20:54;;;;;;;15.50;11.13;;;-1.50;99.90;;;;;;6276947;28;20049;-78
2023/01/20 01:23:57;;;;;;;17.33;12.70;;;-1.60;99.90;;;;;;6273225;28;20053;-80
2023/01/20 01:26:59;;;;;;;20.00;13.43;;;-1.60;99.90;;;;;;6276832;28;20121;-78
2023/01/20 01:30:01;;;;;;;16.63;12.90;;;-1.50;99.90;;;;;;6276628;28;20048;-77
2023/01/20 01:33:02;;;;;;;22.37;14.20;;;-1.60;99.90;;;;;;6273894;28;20045;-78
2023/01/20 01:36:07;;;;;;;21.17;14.23;;;-1.60;99.90;;;;;;6278816;28;20045;-78
2023/01/20 01:39:10;;;;;;;24.63;14.03;;;-1.60;99.90;;;;;;6276625;28;20052;-78
2023/01/20 01:42:12;;;;;;;23.87;15.13;;;-1.60;99.90;;;;;;6277012;28;20045;-79
2023/01/20 01:45:23;;;;;;;21.07;14.17;;;-1.60;99.90;;;;;;6280069;28;20434;-79
2023/01/20 01:48:32;;;;;;;18.67;13.17;;;-1.50;99.90;;;;;;6278527;28;20040;-79
2023/01/20 01:51:36;;;;;;;18.20;12.43;;;-1.60;99.90;;;;;;6279896;28;20052;-78
2023/01/20 01:54:44;;;;;;;16.37;14.30;;;-1.60;99.90;;;;;;6303786;22;20052;-78
2023/01/20 01:57:47;;;;;;;19.37;13.03;;;-1.60;99.90;;;;;;6249539;28;20060;-79
2023/01/20 02:00:49;;;;;;;17.43;12.23;;;-1.70;99.90;;;;;;6251388;28;20073;-79
2023/01/20 02:03:57;;;;;;;17.97;13.00;;;-1.80;99.90;;;;;;6250704;28;20050;-78
2023/01/20 02:07:04;;;;;;;19.30;15.07;;;-1.80;99.90;;;;;;6250910;28;20050;-78
2023/01/20 02:10:08;;;;;;;19.73;13.47;;;-1.80;99.90;;;;;;6251076;28;20060;-80
2023/01/20 02:13:10;;;;;;;19.13;14.07;;;-1.70;99.90;;;;;;6251802;28;20042;-80
2023/01/20 02:16:18;;;;;;;19.57;13.97;;;-1.70;99.90;;;;;;6250485;28;20065;-80
2023/01/20 02:19:54;;;;;;;17.23;12.85;;;-1.70;99.90;;;;;;6250442;28;20056;-79
2023/01/20 02:23:02;;;;;;;24.23;13.77;;;-1.70;99.90;;;;;;6231065;28;20053;-80
2023/01/20 02:26:16;;;;;;;;;;;-1.70;99.90;;;;;;6251770;28;20056;-78
2023/01/20 02:29:53;;;;;;;18.03;11.63;;;-1.70;99.90;;;;;;6251256;28;19928;-78
2023/01/20 02:33:00;;;;;;;14.40;11.17;;;-1.70;99.90;;;;;;6245300;28;20046;-81
2023/01/20 02:36:07;;;;;;;18.20;12.38;;;-1.80;99.90;;;;;;6274246;28;20679;-80
2023/01/20 02:39:15;;;;;;;18.37;11.60;;;-1.80;99.90;;;;;;6275525;28;20045;-79
2023/01/20 02:42:22;;;;;;;20.13;14.13;;;-1.80;99.90;;;;;;6276908;28;20510;-78
2023/01/20 02:45:28;;;;;;;21.85;14.13;;;-1.80;99.90;;;;;;6275727;28;20049;-79
2023/01/20 02:48:36;;;;;;;14.97;12.07;;;-1.70;99.90;;;;;;6274783;28;20053;-79
2023/01/20 02:51:40;;;;;;;;;;;-1.70;99.90;;;;;;6275800;28;20095;-79
2023/01/20 02:54:48;;;;;;;23.57;11.77;;;-1.70;99.90;;;;;;6275322;28;19928;-80
2023/01/20 02:57:54;;;;;;;17.23;12.63;;;-1.80;99.90;;;;;;6275272;28;20053;-79
2023/01/20 03:01:00;;;;;;;17.10;11.50;;;-1.80;99.90;;;;;;6274850;28;20049;-80
2023/01/20 03:04:06;;;;;;;18.10;12.07;;;-1.90;99.90;;;;;;6273891;28;20053;-79
2023/01/20 03:07:09;;;;;;;18.53;11.57;;;-1.90;99.90;;;;;;6274182;28;20056;-80
2023/01/20 03:10:16;;;;;;;16.53;12.53;;;-2.00;99.90;;;;;;6264045;28;20045;-79
2023/01/20 03:13:24;;;;;;;17.30;10.20;;;-2.00;99.90;;;;;;6248214;28;20049;-80
2023/01/20 03:16:27;;;;;;;18.67;11.67;;;-2.00;99.90;;;;;;6257229;28;20052;-78
2023/01/20 03:19:30;;;;;;;15.47;11.23;;;-2.00;99.90;;;;;;6269377;28;20068;-78
2023/01/20 03:22:32;;;;;;;25.33;12.43;;;-1.90;99.90;;;;;;6257482;28;20052;-80
2023/01/20 03:25:34;;;;;;;17.67;11.57;;;-1.90;99.90;;;;;;6253326;28;20447;-81
2023/01/20 03:28:36;;;;;;;19.37;12.13;;;-1.90;99.90;;;;;;6250564;28;20125;-81
2023/01/20 03:31:41;;;;;;;18.37;10.70;;;-1.90;99.90;;;;;;6250749;28;20053;-81
2023/01/20 03:34:44;;;;;;;17.33;11.47;;;-1.90;99.90;;;;;;6241250;28;20061;-80
2023/01/20 03:37:46;;;;;;;16.43;12.23;;;-2.00;99.90;;;;;;6225750;28;20046;-79
2023/01/20 03:40:56;;;;;;;16.60;10.40;;;-1.90;99.90;;;;;;6226730;28;20054;-80
2023/01/20 03:44:07;;;;;;;16.40;10.27;;;-1.90;99.90;;;;;;6225744;28;20053;-78
2023/01/20 03:47:16;;;;;;;15.10;11.10;;;-1.90;99.90;;;;;;6224772;28;20045;-79
2023/01/20 03:50:32;;;;;;;16.23;12.17;;;-1.80;99.90;;;;;;6224102;28;20058;-79
2023/01/20 03:53:44;;;;;;;15.13;10.30;;;-1.80;99.90;;;;;;6224412;28;20042;-80
2023/01/20 03:56:54;;;;;;;19.57;10.87;;;-1.80;99.90;;;;;;6223526;28;20459;-81
2023/01/20 03:59:57;;;;;;;12.87;10.23;;;-1.80;99.90;;;;;;6222940;28;20550;-79
2023/01/20 04:03:02;;;;;;;16.17;11.73;;;-1.70;99.90;;;;;;6223635;28;20525;-78
2023/01/20 04:06:08;;;;;;;15.33;12.60;;;-1.70;99.90;;;;;;6224695;28;20053;-80
2023/01/20 04:09:15;;;;;;;20.27;11.80;;;-1.70;99.90;;;;;;6224230;28;20057;-81
2023/01/20 04:12:17;;;;;;;16.15;11.60;;;-1.70;99.90;;;;;;6248012;28;20445;-79
2023/01/20 04:15:21;;;;;;;13.37;10.37;;;-1.70;99.90;;;;;;6248663;28;20050;-80
2023/01/20 04:18:24;;;;;;;16.23;11.13;;;-1.80;99.90;;;;;;6251949;28;20045;-79
2023/01/20 04:21:33;;;;;;;16.17;10.50;;;-1.80;99.90;;;;;;6252997;28;20068;-79
2023/01/20 04:24:40;;;;;;;28.57;12.00;;;-1.80;99.90;;;;;;6251532;28;20053;-79
2023/01/20 04:27:42;;;;;;;13.10;10.75;;;-1.80;99.90;;;;;;6252839;28;20041;-79
2023/01/20 04:30:44;;;;;;;12.57;10.10;;;-1.80;99.90;;;;;;6252037;28;20041;-80
2023/01/20 04:33:45;;;;;;;14.27;10.60;;;-1.80;99.90;;;;;;6251786;28;20041;-78
2023/01/20 04:36:48;;;;;;;14.97;10.93;;;-1.80;99.90;;;;;;6253084;28;20049;-79
2023/01/20 04:39:50;;;;;;;16.17;11.67;;;-1.80;99.90;;;;;;6250461;28;20045;-78
2023/01/20 04:42:52;;;;;;;16.43;10.77;;;-1.70;99.90;;;;;;6250787;28;20045;-79
2023/01/20 04:45:53;;;;;;;15.90;9.53;;;-1.70;99.90;;;;;;6251051;28;20060;-80
2023/01/20 04:48:55;;;;;;;15.17;9.87;;;-1.80;99.90;;;;;;6250426;28;20195;-78
2023/01/20 04:51:58;;;;;;;11.17;9.40;;;-1.80;99.90;;;;;;6251939;28;20041;-79
2023/01/20 04:55:00;;;;;;;11.80;8.30;;;-1.80;99.90;;;;;;6251934;28;20056;-80
2023/01/20 04:58:02;;;;;;;14.00;8.53;;;-1.90;99.90;;;;;;6250593;28;20050;-78
2023/01/20 05:01:03;;;;;;;12.63;9.93;;;-1.90;99.90;;;;;;6250449;28;20056;-79
2023/01/20 05:04:05;;;;;;;22.30;10.13;;;-2.00;99.90;;;;;;6250423;28;20053;-78
2023/01/20 05:07:08;;;;;;;16.57;11.13;;;-2.00;99.90;;;;;;6249767;28;20042;-79
2023/01/20 05:10:11;;;;;;;9.53;8.47;;;-2.10;99.90;;;;;;6250134;28;20042;-80
2023/01/20 05:13:13;;;;;;;16.30;9.53;;;-2.10;99.90;;;;;;6249825;28;20045;-80
2023/01/20 05:16:14;;;;;;;10.33;9.13;;;-2.20;99.90;;;;;;6249938;28;20111;-79
2023/01/20 05:19:16;;;;;;;14.33;9.07;;;-2.20;99.90;;;;;;6249450;28;20057;-81
2023/01/20 05:22:19;;;;;;;21.80;10.53;;;-2.30;99.90;;;;;;6249567;28;20052;-79
2023/01/20 05:25:21;;;;;;;16.40;9.70;;;-2.30;99.90;;;;;;6250894;28;20494;-80
2023/01/20 05:28:22;;;;;;;11.80;8.83;;;-2.30;99.90;;;;;;6248639;28;20060;-79
2023/01/20 05:31:24;;;;;;;15.63;9.73;;;-2.40;99.90;;;;;;6250487;28;20052;-79
2023/01/20 05:34:26;;;;;;;12.43;9.23;;;-2.40;99.90;;;;;;6248216;28;20046;-79
2023/01/20 05:37:29;;;;;;;13.73;7.90;;;-2.40;99.90;;;;;;6245332;28;20707;-78
2023/01/20 05:40:31;;;;;;;10.93;8.10;;;-2.50;99.90;;;;;;6249749;28;20045;-80
2023/01/20 05:43:33;;;;;;;11.03;8.90;;;-2.50;99.90;;;;;;6249606;28;20046;-79
2023/01/20 05:46:34;;;;;;;12.07;7.67;;;-2.50;99.90;;;;;;6249577;28;20090;-79
2023/01/20 05:49:36;;;;;;;14.53;9.30;;;-2.60;99.90;;;;;;6249242;28;20045;-80
2023/01/20 05:52:39;;;;;;;16.27;10.10;;;-2.60;99.90;;;;;;6249739;28;20045;-80
2023/01/20 05:55:41;;;;;;;10.97;8.27;;;-2.60;99.90;;;;;;6249721;28;20049;-80
2023/01/20 05:58:43;;;;;;;15.70;9.30;;;-2.70;99.90;;;;;;6249893;28;20045;-79
2023/01/20 06:01:44;;;;;;;11.40;8.30;;;-2.70;99.90;;;;;;6251005;28;20061;-77
2023/01/20 06:04:47;;;;;;;11.30;8.70;;;-2.70;99.90;;;;;;6249971;28;20045;-79
2023/01/20 06:07:50;;;;;;;10.47;8.50;;;-2.70;99.90;;;;;;6271149;28;20045;-80
2023/01/20 06:10:52;;;;;;;15.87;9.20;;;-2.60;99.90;;;;;;6256685;28;20048;-79
2023/01/20 06:13:54;;;;;;;15.97;9.93;;;-2.50;99.90;;;;;;6263339;28;20045;-79
2023/01/20 06:16:56;;;;;;;19.90;12.00;;;-2.40;99.90;;;;;;6256937;28;20076;-80
2023/01/20 06:19:59;;;;;;;13.13;10.53;;;-2.30;99.90;;;;;;6250562;28;20046;-79
2023/01/20 06:23:02;;;;;;;14.83;8.70;;;-2.10;99.90;;;;;;6249881;28;20065;-80
2023/01/20 06:26:05;;;;;;;17.23;9.40;;;-2.10;99.90;;;;;;6249234;28;20673;-80
2023/01/20 06:29:07;;;;;;;12.87;9.60;;;-2.10;99.90;;;;;;6266409;28;20414;-80
2023/01/20 06:32:08;;;;;;;10.63;8.73;;;-2.10;99.90;;;;;;6275834;28;20515;-80
2023/01/20 06:35:10;;;;;;;14.50;9.43;;;-2.10;99.90;;;;;;6274629;28;20449;-82
2023/01/20 06:38:13;;;;;;;17.03;9.20;;;-2.10;99.90;;;;;;6250708;28;20529;-80
2023/01/20 06:41:15;;;;;;;15.10;11.10;;;-2.10;99.90;;;;;;6252873;28;20049;-79
2023/01/20 06:44:16;;;;;;;16.40;10.87;;;-2.10;99.90;;;;;;6271262;28;20065;-79
2023/01/20 06:47:18;;;;;;;22.37;10.73;;;-2.10;99.90;;;;;;6261923;28;20052;-82
2023/01/20 06:50:20;;;;;;;36.63;16.80;;;-2.10;99.90;;;;;;6254704;28;20049;-81
2023/01/20 06:53:24;;;;;;;33.67;17.17;;;-2.20;99.90;;;;;;6255903;28;20050;-82
2023/01/20 06:56:25;;;;;;;24.70;12.73;;;-2.20;99.90;;;;;;6253100;28;20049;-82
2023/01/20 06:59:27;;;;;;;22.67;11.73;;;-2.20;99.90;;;;;;6252970;28;20056;-81
2023/01/20 07:02:29;;;;;;;14.83;8.27;;;-2.30;99.90;;;;;;6252502;28;20048;-82
2023/01/20 07:05:31;;;;;;;12.70;8.97;;;-2.30;99.90;;;;;;6250995;28;20053;-82
2023/01/20 07:08:34;;;;;;;14.83;8.37;;;-2.40;99.90;;;;;;6249787;28;20050;-82
2023/01/20 07:11:36;;;;;;;11.27;8.33;;;-2.40;99.90;;;;;;6251013;28;20057;-83
2023/01/20 07:14:37;;;;;;;15.00;7.37;;;-2.40;99.90;;;;;;6253189;28;20564;-82
2023/01/20 07:17:39;;;;;;;11.87;8.97;;;-2.40;99.90;;;;;;6249440;28;20049;-82
2023/01/20 07:20:42;;;;;;;12.17;6.97;;;-2.40;99.90;;;;;;6249250;28;20052;-80
2023/01/20 07:23:45;;;;;;;8.97;7.10;;;-2.50;99.90;;;;;;6248670;28;20049;-81
2023/01/20 07:26:47;;;;;;;34.40;14.93;;;-2.50;99.90;;;;;;6247592;28;20183;-82
2023/01/20 07:29:48;;;;;;;25.53;14.73;;;-2.60;99.90;;;;;;6248148;28;20045;-81
2023/01/20 07:32:50;;;;;;;18.17;11.63;;;-2.60;99.90;;;;;;6248680;28;20056;-82
2023/01/20 07:35:53;;;;;;;13.13;10.57;;;-2.50;99.90;;;;;;6248133;28;20045;-81
2023/01/20 07:38:56;;;;;;;15.73;9.93;;;-2.50;99.90;;;;;;6244353;28;20049;-82
2023/01/20 07:41:57;;;;;;;21.23;10.83;;;-2.50;99.90;;;;;;6248060;28;20045;-79
2023/01/20 07:44:59;;;;;;;10.67;7.20;;;-2.50;99.90;;;;;;6247001;28;20041;-81
2023/01/20 07:48:02;;;;;;;8.43;7.10;;;-2.40;99.90;;;;;;6247648;28;20045;-80
2023/01/20 07:51:06;;;;;;;9.97;8.03;;;-2.40;99.90;;;;;;6248056;28;20506;-80
2023/01/20 07:54:10;;;;;;;9.80;7.40;;;-2.40;99.90;;;;;;6248741;28;20046;-80
2023/01/20 07:57:12;;;;;;;13.90;7.60;;;-2.40;99.90;;;;;;6246623;28;20525;-80
2023/01/20 08:00:15;;;;;;;11.27;8.20;;;-2.40;99.90;;;;;;6246288;28;20050;-79
2023/01/20 08:03:16;;;;;;;10.93;7.27;;;-2.40;99.90;;;;;;6246470;28;20050;-79
2023/01/20 08:06:20;;;;;;;14.73;9.37;;;-2.30;99.90;;;;;;6247717;28;20053;-80
2023/01/20 08:09:23;;;;;;;12.77;8.67;;;-2.20;99.90;;;;;;6247170;28;20056;-79
2023/01/20 08:12:24;;;;;;;13.00;9.60;;;-2.10;99.90;;;;;;6247741;28;20050;-78
2023/01/20 08:15:26;;;;;;;22.33;16.13;;;-2.00;99.90;;;;;;6247419;28;20049;-80
2023/01/20 08:18:28;;;;;;;17.80;11.63;;;-1.80;99.90;;;;;;6250678;28;20053;-80
2023/01/20 08:21:31;;;;;;;15.77;12.13;;;-1.70;99.90;;;;;;6252752;28;20040;-81
2023/01/20 08:24:34;;;;;;;20.33;13.03;;;-1.50;99.90;;;;;;6273171;28;20041;-80
2023/01/20 08:27:36;;;;;;;30.90;15.90;;;-1.30;99.90;;;;;;6272600;28;20053;-80
2023/01/20 08:30:38;;;;;;;24.67;15.80;;;-1.00;99.90;;;;;;6274193;28;20045;-78
2023/01/20 08:33:41;;;;;;;21.17;12.13;;;-0.80;99.90;;;;;;6274818;28;20084;-80
2023/01/20 08:36:43;;;;;;;19.43;13.93;;;-0.50;99.90;;;;;;6273256;28;20049;-78
2023/01/20 08:39:46;;;;;;;14.03;9.83;;;-0.30;99.90;;;;;;6246337;28;20045;-79
2023/01/20 08:42:48;;;;;;;14.17;10.30;;;0.00;99.90;;;;;;6248696;28;20048;-79
2023/01/20 08:45:58;;;;;;;21.30;12.90;;;0.20;99.90;;;;;;6248527;28;20053;-80
2023/01/20 08:49:00;;;;;;;18.83;9.93;;;0.50;99.90;;;;;;6247844;28;20416;-80
2023/01/20 08:52:02;;;;;;;13.55;8.75;;;0.80;99.90;;;;;;6248017;28;20046;-79
2023/01/20 08:55:06;;;;;;;11.65;8.52;;;1.10;99.90;;;;;;6247552;28;20068;-79
2023/01/20 08:58:07;;;;;;;13.25;7.30;;;1.30;99.90;;;;;;6248008;28;20061;-78
2023/01/20 09:01:10;;;;;;;13.90;7.10;;;1.60;99.90;;;;;;6247410;28;20050;-79
2023/01/20 09:04:12;;;;;;;9.77;7.72;;;1.90;99.90;;;;;;6251505;28;20060;-80
2023/01/20 09:07:13;;;;;;;12.63;7.35;;;2.00;99.90;;;;;;6251565;28;20045;-80
2023/01/20 09:10:18;;;;;;;9.57;7.30;;;2.20;99.90;;;;;;6245250;28;20057;-78
2023/01/20 09:13:20;;;;;;;10.73;7.68;;;2.40;99.90;;;;;;6262937;28;20079;-79
2023/01/20 09:16:21;;;;;;;19.15;9.73;;;2.60;99.90;;;;;;6254533;28;20423;-78
2023/01/20 09:19:23;;;;;;;9.80;7.72;;;2.80;99.90;;;;;;6247945;28;20092;-79
2023/01/20 09:22:25;;;;;;;8.80;7.57;;;2.90;99.90;;;;;;6249051;28;20187;-80
2023/01/20 09:25:28;;;;;;;13.55;8.38;;;3.00;99.90;;;;;;6248934;28;20053;-80
2023/01/20 09:28:30;;;;;;;10.30;7.70;;;3.20;99.90;;;;;;6249537;28;20042;-80
2023/01/20 09:31:32;;;;;;;13.50;9.75;;;3.30;99.90;;;;;;6249257;28;20056;-78
2023/01/20 09:34:34;;;;;;;9.88;7.72;;;3.50;99.90;;;;;;6249178;28;20047;-79
2023/01/20 09:44:43;;;;;;;16.67;9.93;;;4.00;99.90;;;;;;6253952;28;20050;-77
2023/01/20 09:47:47;;;;;;;13.18;9.73;;;4.30;99.90;;;;;;6248195;28;20061;-79
2023/01/20 09:54:16;;;;;;;15.43;9.85;;;4.80;99.90;;;;;;6249133;28;20045;-77
2023/01/20 09:57:21;;;;;;;14.48;8.38;;;5.10;99.90;;;;;;6249027;28;20064;-77
2023/01/20 10:00:26;;;;;;;14.25;8.90;;;5.30;99.90;;;;;;6248663;28;20045;-79
2023/01/20 10:03:35;;;;;;;13.23;10.20;;;5.40;99.90;;;;;;6249157;28;20411;-78
2023/01/20 10:06:41;;;;;;;13.57;11.65;;;5.40;99.90;;;;;;6251131;28;20053;-76
2023/01/20 10:09:49;;;;;;;12.98;9.48;;;5.20;99.90;;;;;;6258843;28;20415;-76
2023/01/20 10:12:55;;;;;;;17.50;12.55;;;5.10;99.90;;;;;;6261853;28;20458;-77
2023/01/20 10:15:57;;;;;;;14.70;11.50;;;5.20;99.90;;;;;;6228549;28;20077;-80
2023/01/20 10:19:02;;;;;;;16.60;11.18;;;5.30;99.90;;;;;;6224026;28;20405;-78
2023/01/20 10:22:09;;;;;;;17.33;12.18;;;5.70;99.90;;;;;;6247667;28;20124;-77
2023/01/20 10:25:15;;;;;;;14.52;11.55;;;5.90;99.90;;;;;;6254838;28;20415;-76
2023/01/20 10:28:26;;;;;;;15.98;11.43;;;6.10;99.90;;;;;;6247250;28;20053;-77
2023/01/20 10:31:30;;;;;;;18.90;13.00;;;6.20;99.90;;;;;;6247860;28;20503;-78
2023/01/20 10:34:39;;;;;;;16.80;12.23;;;6.40;99.90;;;;;;6249288;28;20056;-77
2023/01/20 10:37:41;;;;;;;18.77;12.52;;;6.30;99.90;;;;;;6247780;28;20045;-77
2023/01/20 10:40:48;;;;;;;16.13;12.15;;;6.10;99.90;;;;;;6243140;28;20050;-77
2023/01/20 10:43:51;;;;;;;22.08;13.50;;;6.30;99.90;;;;;;6255598;28;20406;-77
2023/01/20 10:47:03;;;;;;;19.35;14.35;;;6.40;99.90;;;;;;6248308;28;20046;-77
2023/01/20 10:50:27;;;;;;;15.18;12.27;;;6.60;99.90;;;;;;6247108;28;20058;-77
2023/01/20 10:53:42;;;;;;;15.70;13.98;;;6.80;99.90;;;;;;6247699;28;20479;-76
2023/01/20 10:56:52;;;;;;;20.08;12.82;;;7.00;99.90;;;;;;6249587;28;20057;-77
2023/01/20 11:00:00;;;;;;;13.85;11.63;;;7.10;99.90;;;;;;6247245;28;20049;-76
2023/01/20 11:03:04;;;;;;;16.90;12.85;;;6.90;99.90;;;;;;6246913;28;20419;-76
2023/01/20 11:06:07;;;;;;;18.40;13.05;;;6.70;99.90;;;;;;6248363;28;20049;-78
2023/01/20 11:09:20;;;;;;;16.08;12.52;;;6.80;99.90;;;;;;6246366;28;20060;-78
2023/01/20 11:12:25;;;;;;;14.73;12.35;;;6.90;99.90;;;;;;6255052;28;20041;-77
2023/01/20 11:15:31;;;;;;;16.08;13.55;;;7.10;99.90;;;;;;6262524;28;20049;-79
2023/01/20 11:18:33;;;;;;;17.35;12.70;;;7.20;99.90;;;;;;6249852;28;20060;-78
2023/01/20 11:21:36;;;;;;;14.65;12.90;;;7.10;99.90;;;;;;6249427;28;20064;-78
2023/01/20 11:24:43;;;;;;;15.00;11.95;;;7.40;99.90;;;;;;6246205;28;20037;-77
2023/01/20 11:27:46;;;;;;;16.30;11.82;;;7.50;99.90;;;;;;6245856;28;20045;-78
2023/01/20 11:30:54;;;;;;;13.93;11.85;;;7.90;99.90;;;;;;6248360;28;20046;-77
2023/01/20 11:33:58;;;;;;;15.88;13.50;;;7.90;99.90;;;;;;6248929;28;20483;-80
2023/01/20 11:37:20;;;;;;;15.40;11.68;;;7.60;99.90;;;;;;6251982;28;20042;-79
2023/01/20 11:40:25;;;;;;;14.63;11.48;;;7.70;99.90;;;;;;6251427;28;20056;-80
2023/01/20 11:43:32;;;;;;;16.35;13.27;;;7.80;99.90;;;;;;6259440;28;20041;-78
2023/01/20 11:46:36;;;;;;;13.43;12.07;;;7.60;99.90;;;;;;6275683;28;20434;-79
2023/01/20 11:49:39;;;;;;;18.75;12.23;;;7.40;99.90;;;;;;6272470;28;20056;-79
2023/01/20 11:52:42;;;;;;;16.08;13.07;;;7.00;99.90;;;;;;6286684;28;20060;-77
2023/01/20 11:55:50;;;;;;;15.52;11.30;;;6.70;99.90;;;;;;6275101;28;20041;-75
2023/01/20 11:58:55;;;;;;;19.25;13.15;;;6.40;99.90;;;;;;6274743;28;20048;-78
2023/01/20 12:02:00;;;;;;;14.13;12.68;;;6.10;99.90;;;;;;6278305;28;20060;-80
2023/01/20 12:05:12;;;;;;;12.60;10.55;;;5.80;99.90;;;;;;6272369;28;20529;-81
2023/01/20 12:08:19;;;;;;;12.55;11.13;;;5.50;99.90;;;;;;6272836;28;20056;-79
2023/01/20 12:11:26;;;;;;;16.90;12.00;;;5.40;99.90;;;;;;6272289;28;20044;-80
2023/01/20 12:14:32;;;;;;;17.60;12.37;;;5.20;99.90;;;;;;6268056;28;20049;-80
2023/01/20 12:17:46;;;;;;;15.05;10.82;;;5.20;99.90;;;;;;6274173;28;20052;-78
2023/01/20 12:20:55;;;;;;;14.23;11.90;;;5.20;99.90;;;;;;6273703;28;20053;-80
2023/01/20 12:24:00;;;;;;;18.42;13.30;;;5.10;99.90;;;;;;6282218;28;20052;-80
2023/01/20 12:27:02;;;;;;;13.57;11.02;;;5.20;99.90;;;;;;6273351;28;20498;-80
2023/01/20 12:30:13;;;;;;;14.25;9.60;;;5.60;99.90;;;;;;6272235;28;20057;-80
2023/01/20 12:33:21;;;;;;;12.73;9.68;;;6.00;99.90;;;;;;6271624;28;20045;-76
2023/01/20 12:36:46;;;;;;;10.93;9.32;;;6.50;99.90;;;;;;6264464;28;20045;-79
2023/01/20 12:40:14;;;;;;;11.93;10.13;;;6.90;99.90;;;;;;6255444;28;20099;-79
2023/01/20 12:43:41;;;;;;;20.83;18.53;;;7.10;99.90;;;;;;6253651;28;20053;-81
2023/01/20 12:46:49;;;;;;;13.23;9.63;;;7.20;99.90;;;;;;6278211;28;20055;-78
2023/01/20 12:50:10;;;;;;;63.83;33.13;;;6.90;99.90;;;;;;6278296;28;20404;-79
2023/01/20 12:53:37;;;;;;;32.80;19.75;;;6.50;99.90;;;;;;6278743;28;20045;-79
2023/01/20 12:56:49;;;;;;;15.52;11.70;;;6.40;99.90;;;;;;6277573;28;20052;-81
2023/01/20 13:00:00;;;;;;;14.23;8.98;;;6.20;99.90;;;;;;6276367;28;20414;-80
2023/01/20 13:03:50;;;;;;;20.60;14.60;;;6.10;99.90;;;;;;6276289;28;20044;-79
2023/01/20 13:07:13;;;;;;;17.38;12.07;;;5.90;99.90;;;;;;6276324;28;20048;-80
2023/01/20 13:10:30;;;;;;;10.95;8.48;;;6.00;99.90;;;;;;6252514;28;20060;-79
2023/01/20 13:13:44;;;;;;;10.10;8.32;;;6.30;99.90;;;;;;6262873;28;20410;-81
2023/01/20 13:16:52;;;;;;;13.23;8.95;;;6.80;99.90;;;;;;6255110;28;20045;-80
2023/01/20 13:19:59;;;;;;;17.27;11.27;;;7.00;99.90;;;;;;6258960;28;20061;-81
2023/01/20 13:23:05;;;;;;;17.35;10.65;;;6.80;99.90;;;;;;6257048;28;20049;-80
2023/01/20 13:26:07;;;;;;;8.30;7.03;;;6.70;99.90;;;;;;6257794;28;20060;-80
2023/01/20 13:29:21;;;;;;;9.02;7.40;;;7.20;99.90;;;;;;6258307;28;20056;-81
2023/01/20 13:32:30;;;;;;;11.80;9.45;;;7.60;99.90;;;;;;6259895;28;20050;-79
2023/01/20 13:35:44;;;;;;;10.73;7.47;;;7.70;99.90;;;;;;6274063;28;20056;-80
2023/01/20 13:38:49;;;;;;;9.02;6.05;;;7.90;99.90;;;;;;6264391;28;20048;-81
2023/01/20 13:41:52;;;;;;;14.68;8.27;;;7.90;99.90;;;;;;6266305;28;20059;-82
2023/01/20 13:45:18;;;;;;;8.98;6.30;;;8.30;99.90;;;;;;6257245;28;20052;-81
2023/01/20 13:48:23;;;;;;;9.18;7.45;;;8.30;99.90;;;;;;6256733;28;20049;-79
2023/01/20 13:51:43;;;;;;;8.00;6.25;;;8.40;99.90;;;;;;6256831;28;20099;-81
2023/01/20 13:54:47;;;;;;;21.98;11.18;;;8.50;99.90;;;;;;6256660;28;20053;-81
2023/01/20 13:57:49;;;;;;;192.30;66.95;;;8.40;99.90;;;;;;6322518;22;20106;-81
2023/01/20 14:00:53;;;;;;;21.52;11.23;;;8.30;99.90;;;;;;6327609;28;20048;-81
2023/01/20 14:04:02;;;;;;;56.10;22.83;;;8.20;99.90;;;;;;6329983;28;20055;-82
2023/01/20 14:07:08;;;;;;;36.72;16.48;;;7.90;99.90;;;;;;6327791;28;20051;-82
2023/01/20 14:11:03;;;;;;;12.93;7.97;;;7.80;99.90;;;;;;6328867;28;20059;-81
2023/01/20 14:14:06;;;;;;;12.73;7.50;;;7.60;99.90;;;;;;6330215;28;20069;-81
2023/01/20 14:17:15;;;;;;;7.97;6.63;;;7.20;99.90;;;;;;6331660;28;20052;-81
2023/01/20 14:20:22;;;;;;;9.93;6.18;;;7.00;99.90;;;;;;6327932;28;20592;-81
2023/01/20 14:23:33;;;;;;;10.40;7.22;;;6.60;99.90;;;;;;6330459;28;20044;-80
2023/01/20 14:26:35;;;;;;;10.50;6.50;;;6.20;99.90;;;;;;6357901;28;20044;-82
2023/01/20 14:29:38;;;;;;;9.02;6.68;;;6.10;99.90;;;;;;6355017;28;20058;-81
2023/01/20 14:32:40;;;;;;;16.05;8.90;;;6.10;99.90;;;;;;6356023;28;20051;-81
2023/01/20 14:35:43;;;;;;;7.70;6.65;;;6.00;99.90;;;;;;6356912;28;20047;-83
2023/01/20 14:38:55;;;;;;;14.15;7.38;;;5.80;99.90;;;;;;6345049;28;20067;-82
2023/01/20 14:41:58;;;;;;;18.98;11.88;;;5.70;99.90;;;;;;6320982;28;20129;-81
2023/01/20 14:45:02;;;;;;;10.25;7.10;;;5.50;99.90;;;;;;6310907;28;20054;-82
2023/01/20 14:48:05;;;;;;;9.35;7.72;;;5.30;99.90;;;;;;6302275;28;20048;-84
2023/01/20 14:51:08;;;;;;;11.77;8.32;;;5.20;99.90;;;;;;6311955;28;20048;-81
2023/01/20 14:54:29;;;;;;;10.25;7.68;;;5.10;99.90;;;;;;6306760;28;20052;-80
2023/01/20 14:57:33;;;;;;;11.30;6.60;;;5.00;99.90;;;;;;6303330;28;20047;-80
2023/01/20 15:00:42;;;;;;;12.20;7.65;;;4.90;99.90;;;;;;6321269;28;20048;-82
2023/01/20 15:03:44;;;;;;;8.18;6.82;;;4.80;99.90;;;;;;6323272;28;20044;-80
2023/01/20 15:06:52;;;;;;;11.05;6.20;;;4.80;99.90;;;;;;6323357;28;20040;-78
2023/01/20 15:09:56;;;;;;;10.68;6.55;;;4.70;99.90;;;;;;6324585;28;20063;-81
2023/01/20 15:12:58;;;;;;;9.13;7.18;;;4.60;99.90;;;;;;6327820;28;20038;-84
2023/01/20 15:16:16;;;;;;;9.23;6.70;;;4.60;99.90;;;;;;6325465;28;20048;-84
2023/01/20 15:19:32;;;;;;;9.02;7.55;;;4.60;99.90;;;;;;6301429;28;20079;-82
2023/01/20 15:22:34;;;;;;;10.15;7.57;;;4.40;99.90;;;;;;6313235;28;20056;-81
2023/01/20 15:25:37;;;;;;;12.25;7.50;;;4.50;99.90;;;;;;6323418;28;20094;-81
2023/01/20 15:28:43;;;;;;;10.45;6.53;;;4.40;99.90;;;;;;6302404;28;20051;-82
2023/01/20 15:31:46;;;;;;;7.72;6.32;;;4.30;99.90;;;;;;6301392;28;20050;-81
2023/01/20 15:34:47;;;;;;;9.07;6.55;;;4.30;99.90;;;;;;6303522;28;20418;-81
2023/01/20 15:37:50;;;;;;;7.15;6.07;;;4.30;99.90;;;;;;6301885;28;20123;-81
2023/01/20 15:40:52;;;;;;;8.70;6.20;;;4.20;99.90;;;;;;6309692;28;20501;-80
2023/01/20 15:43:54;;;;;;;8.73;6.07;;;4.20;99.90;;;;;;6340087;28;20052;-81
2023/01/20 15:46:58;;;;;;;12.73;9.00;;;4.10;99.90;;;;;;6311114;28;20052;-81
2023/01/20 15:49:59;;;;;;;14.23;7.22;;;4.00;99.90;;;;;;6304253;28;20048;-81
2023/01/20 15:53:02;;;;;;;9.50;5.70;;;3.90;99.90;;;;;;6302962;28;20501;-81
2023/01/20 15:56:04;;;;;;;5.47;4.88;;;3.80;99.90;;;;;;6321835;28;20044;-83
2023/01/20 15:59:11;;;;;;;12.88;7.18;;;3.80;99.90;;;;;;6306741;28;20409;-80
2023/01/20 16:02:20;;;;;;;12.43;6.60;;;3.70;99.90;;;;;;6326208;28;20048;-80
2023/01/20 16:05:21;;;;;;;11.73;6.85;;;3.50;99.90;;;;;;6323293;28;20488;-80